createdAt,value
2018-08-22T00:01:59.247Z,6.40
2018-08-22T00:04:27.696Z,7.07
2018-08-22T00:06:56.151Z,7.20
2018-08-22T00:09:24.586Z,7.00
2018-08-22T00:11:52.999Z,6.77
2018-08-22T00:14:21.435Z,7.03
2018-08-22T00:16:49.902Z,7.17
2018-08-22T00:19:18.372Z,7.00
2018-08-22T00:21:46.776Z,7.50
2018-08-22T00:24:15.368Z,7.30
2018-08-22T00:26:43.761Z,6.70
2018-08-22T00:29:12.251Z,7.40
2018-08-22T00:31:40.686Z,7.20
2018-08-22T00:34:09.179Z,6.93
2018-08-22T00:36:37.726Z,7.23
2018-08-22T00:39:07.167Z,7.07
2018-08-22T00:41:35.634Z,7.27
2018-08-22T00:44:04.126Z,6.97
2018-08-22T00:46:32.585Z,6.70
2018-08-22T00:49:01.027Z,6.80
2018-08-22T00:51:29.615Z,7.13
2018-08-22T00:53:58.080Z,7.30
2018-08-22T00:56:26.747Z,7.47
2018-08-22T00:58:55.154Z,7.87
2018-08-22T01:01:23.620Z,7.00
2018-08-22T01:03:52.018Z,6.67
2018-08-22T01:06:20.424Z,6.93
2018-08-22T01:08:48.864Z,7.20
2018-08-22T01:11:17.325Z,6.67
2018-08-22T01:13:45.789Z,7.03
2018-08-22T01:16:14.220Z,6.27
2018-08-22T01:18:42.812Z,6.97
2018-08-22T01:21:11.248Z,6.77
2018-08-22T01:23:39.693Z,7.03
2018-08-22T01:26:08.087Z,7.30
2018-08-22T01:28:36.550Z,7.30
2018-08-22T01:31:05.473Z,6.73
2018-08-22T01:33:34.202Z,7.47
2018-08-22T01:36:02.646Z,6.67
2018-08-22T01:38:31.146Z,6.90
2018-08-22T01:40:59.574Z,7.70
2018-08-22T01:43:27.999Z,6.90
2018-08-22T01:45:56.414Z,7.33
2018-08-22T01:48:24.896Z,7.30
2018-08-22T01:50:53.357Z,7.20
2018-08-22T01:53:21.834Z,6.50
2018-08-22T01:55:50.275Z,6.37
2018-08-22T01:58:18.703Z,6.37
2018-08-22T02:00:47.226Z,6.73
2018-08-22T02:03:15.614Z,6.67
2018-08-22T02:05:44.305Z,6.60
2018-08-22T02:08:12.736Z,6.47
2018-08-22T02:10:41.217Z,7.00
2018-08-22T02:13:09.675Z,6.23
2018-08-22T02:15:38.161Z,6.37
2018-08-22T02:18:06.661Z,6.70
2018-08-22T02:20:35.026Z,6.70
2018-08-22T02:23:03.443Z,7.00
2018-08-22T02:25:31.912Z,6.77
2018-08-22T02:28:00.311Z,7.30
2018-08-22T02:30:28.759Z,6.83
2018-08-22T02:32:57.226Z,6.77
2018-08-22T02:35:25.653Z,7.57
2018-08-22T02:37:54.086Z,6.50
2018-08-22T02:40:22.516Z,7.13
2018-08-22T02:42:51.051Z,6.87
2018-08-22T02:45:19.494Z,6.87
2018-08-22T02:47:48.049Z,6.87
2018-08-22T02:50:16.449Z,6.73
2018-08-22T02:52:44.907Z,7.33
2018-08-22T02:55:13.481Z,7.57
2018-08-22T02:57:41.897Z,7.13
2018-08-22T03:00:10.342Z,7.43
2018-08-22T03:02:38.847Z,7.20
2018-08-22T03:05:07.253Z,7.23
2018-08-22T03:07:35.707Z,7.03
2018-08-22T03:10:04.247Z,7.57
2018-08-22T03:12:32.711Z,7.30
2018-08-22T03:15:01.304Z,7.70
2018-08-22T03:17:29.714Z,7.17
2018-08-22T03:19:58.149Z,6.73
2018-08-22T03:22:26.647Z,7.07
2018-08-22T03:24:55.074Z,7.43
2018-08-22T03:27:23.534Z,7.10
2018-08-22T03:29:52.127Z,7.10
2018-08-22T03:32:20.522Z,7.30
2018-08-22T03:34:49.002Z,7.13
2018-08-22T03:37:17.430Z,7.23
2018-08-22T03:39:45.842Z,7.33
2018-08-22T03:42:14.370Z,6.80
2018-08-22T03:44:42.804Z,6.30
2018-08-22T03:47:11.219Z,7.30
2018-08-22T03:49:39.644Z,6.83
2018-08-22T03:52:08.193Z,6.87
2018-08-22T03:54:36.647Z,7.13
2018-08-22T03:57:05.092Z,6.60
2018-08-22T03:59:33.628Z,7.03
2018-08-22T04:02:02.269Z,6.33
2018-08-22T04:04:30.679Z,7.00
2018-08-22T04:06:59.091Z,7.20
2018-08-22T04:09:27.562Z,7.47
2018-08-22T04:11:56.767Z,7.50
2018-08-22T04:14:25.196Z,7.10
2018-08-22T04:16:53.750Z,7.17
2018-08-22T04:19:22.172Z,7.07
2018-08-22T04:21:50.850Z,7.43
2018-08-22T04:24:19.315Z,7.13
2018-08-22T04:26:47.987Z,7.47
2018-08-22T04:29:16.450Z,7.03
2018-08-22T04:31:44.915Z,7.37
2018-08-22T04:34:13.305Z,7.53
2018-08-22T04:36:41.902Z,6.90
2018-08-22T04:39:10.516Z,6.53
2018-08-22T04:41:38.992Z,7.07
2018-08-22T04:44:07.368Z,7.03
2018-08-22T04:46:35.844Z,7.13
2018-08-22T04:49:04.275Z,7.47
2018-08-22T04:51:32.727Z,7.33
2018-08-22T04:54:01.139Z,6.87
2018-08-22T04:56:29.601Z,7.07
2018-08-22T04:58:58.208Z,7.47
2018-08-22T05:01:26.620Z,6.63
2018-08-22T05:03:55.037Z,7.87
2018-08-22T05:06:23.541Z,7.47
2018-08-22T05:08:51.954Z,7.87
2018-08-22T05:11:20.428Z,7.83
2018-08-22T05:13:49.038Z,8.07
2018-08-22T05:16:18.174Z,7.43
2018-08-22T05:18:46.620Z,7.93
2018-08-22T05:21:15.147Z,7.60
2018-08-22T05:23:43.629Z,7.50
2018-08-22T05:26:12.030Z,7.70
2018-08-22T05:28:40.509Z,6.80
2018-08-22T05:31:08.923Z,6.97
2018-08-22T05:33:37.333Z,6.50
2018-08-22T05:36:05.811Z,6.80
2018-08-22T05:38:34.278Z,6.90
2018-08-22T05:41:02.890Z,6.87
2018-08-22T05:43:31.363Z,7.00
2018-08-22T05:45:59.787Z,7.43
2018-08-22T05:48:28.267Z,7.27
2018-08-22T05:50:56.699Z,7.30
2018-08-22T05:53:25.131Z,6.63
2018-08-22T05:55:53.666Z,6.97
2018-08-22T05:58:22.137Z,7.47
2018-08-22T06:00:50.586Z,6.93
2018-08-22T06:03:19.101Z,6.77
2018-08-22T06:05:47.542Z,7.40
2018-08-22T06:08:15.937Z,7.13
2018-08-22T06:10:44.356Z,7.33
2018-08-22T06:13:12.782Z,7.03
2018-08-22T06:15:41.319Z,7.20
2018-08-22T06:18:09.697Z,7.23
2018-08-22T06:20:38.241Z,7.60
2018-08-22T06:23:06.841Z,7.40
2018-08-22T06:25:35.320Z,7.20
2018-08-22T06:28:03.812Z,7.70
2018-08-22T06:30:32.994Z,7.93
2018-08-22T06:33:01.472Z,7.37
2018-08-22T06:35:29.926Z,7.77
2018-08-22T06:37:58.354Z,7.70
2018-08-22T06:40:26.782Z,7.60
2018-08-22T06:42:55.203Z,6.83
2018-08-22T06:45:23.655Z,7.33
2018-08-22T06:47:52.070Z,6.50
2018-08-22T06:50:20.609Z,6.73
2018-08-22T06:52:48.961Z,6.63
2018-08-22T06:55:17.444Z,6.67
2018-08-22T06:57:45.946Z,7.07
2018-08-22T07:00:14.373Z,6.80
2018-08-22T07:02:42.849Z,7.00
2018-08-22T07:05:11.472Z,6.73
2018-08-22T07:07:39.897Z,6.53
2018-08-22T07:10:08.989Z,6.33
2018-08-22T07:12:37.409Z,6.27
2018-08-22T07:15:06.490Z,6.40
2018-08-22T07:17:34.939Z,5.97
2018-08-22T07:20:03.480Z,5.70
2018-08-22T07:22:31.917Z,5.70
2018-08-22T07:25:00.343Z,5.43
2018-08-22T07:27:28.746Z,5.73
2018-08-22T07:29:57.502Z,5.20
2018-08-22T07:32:25.932Z,5.50
2018-08-22T07:34:54.372Z,5.00
2018-08-22T07:37:22.878Z,5.30
2018-08-22T07:39:51.369Z,5.20
2018-08-22T07:42:19.831Z,4.80
2018-08-22T07:44:48.251Z,4.67
2018-08-22T07:47:16.694Z,4.60
2018-08-22T07:49:45.131Z,4.37
2018-08-22T07:52:13.654Z,4.07
2018-08-22T07:54:46.120Z,4.50
2018-08-22T07:57:17.007Z,4.27
2018-08-22T07:59:45.469Z,4.43
2018-08-22T08:02:13.896Z,4.50
2018-08-22T08:04:42.367Z,5.17
2018-08-22T08:07:10.851Z,4.63
2018-08-22T08:09:39.461Z,5.50
2018-08-22T08:12:07.907Z,4.70
2018-08-22T08:14:36.498Z,5.13
2018-08-22T08:17:04.996Z,4.73
2018-08-22T08:19:33.395Z,4.60
2018-08-22T08:22:01.827Z,4.40
2018-08-22T08:24:30.334Z,4.43
2018-08-22T08:26:58.811Z,4.20
2018-08-22T08:29:27.431Z,4.37
2018-08-22T08:31:55.958Z,4.87
2018-08-22T08:34:25.344Z,4.30
2018-08-22T08:36:54.659Z,4.90
2018-08-22T08:39:23.253Z,4.47
2018-08-22T08:41:51.681Z,4.20
2018-08-22T08:44:20.096Z,4.50
2018-08-22T08:46:48.831Z,4.67
2018-08-22T08:49:17.504Z,4.73
2018-08-22T08:51:57.671Z,4.60
2018-08-22T08:54:26.162Z,4.33
2018-08-22T08:56:54.603Z,5.03
2018-08-22T08:59:23.066Z,4.97
2018-08-22T09:01:51.534Z,4.57
2018-08-22T09:04:20.075Z,4.80
2018-08-22T09:06:49.286Z,5.07
2018-08-22T09:09:17.759Z,5.10
2018-08-22T09:11:54.439Z,5.17
2018-08-22T09:14:22.951Z,5.03
2018-08-22T09:16:51.434Z,4.80
2018-08-22T09:19:19.891Z,4.47
2018-08-22T09:21:48.551Z,4.60
2018-08-22T09:24:17.162Z,4.90
2018-08-22T09:26:45.658Z,5.03
2018-08-22T09:29:14.190Z,5.10
2018-08-22T09:31:42.660Z,5.07
2018-08-22T09:34:11.168Z,5.50
2018-08-22T09:36:39.591Z,5.33
2018-08-22T09:39:11.366Z,5.43
2018-08-22T09:41:39.840Z,4.97
2018-08-22T09:44:08.761Z,5.27
2018-08-22T09:46:38.224Z,5.23
2018-08-22T09:49:06.771Z,5.43
2018-08-22T09:51:35.256Z,4.90
2018-08-22T09:54:03.784Z,5.30
2018-08-22T09:56:32.283Z,5.50
2018-08-22T09:59:01.104Z,5.43
2018-08-22T10:01:34.928Z,5.23
2018-08-22T10:04:03.451Z,5.50
2018-08-22T10:06:40.065Z,4.70
2018-08-22T10:09:12.492Z,5.30
2018-08-22T10:11:40.951Z,5.20
2018-08-22T10:14:09.439Z,5.03
2018-08-22T10:16:37.980Z,5.03
2018-08-22T10:19:06.495Z,4.63
2018-08-22T10:21:34.928Z,5.03
2018-08-22T10:24:03.339Z,5.13
2018-08-22T10:26:31.802Z,5.67
2018-08-22T10:29:00.218Z,5.57
2018-08-22T10:31:28.693Z,5.60
2018-08-22T10:33:57.411Z,5.17
2018-08-22T10:36:25.990Z,5.43
2018-08-22T10:38:54.510Z,5.50
2018-08-22T10:41:23.048Z,5.23
2018-08-22T10:43:51.551Z,4.90
2018-08-22T10:46:20.015Z,5.20
2018-08-22T10:48:48.476Z,5.30
2018-08-22T10:51:17.082Z,5.27
2018-08-22T10:53:45.594Z,5.60
2018-08-22T10:56:14.015Z,5.23
2018-08-22T10:58:42.660Z,5.03
2018-08-22T11:01:11.080Z,5.20
2018-08-22T11:03:39.495Z,5.60
2018-08-22T11:06:07.946Z,5.57
2018-08-22T11:08:36.498Z,5.67
2018-08-22T11:11:05.011Z,5.50
2018-08-22T11:13:33.494Z,4.90
2018-08-22T11:16:02.005Z,5.73
2018-08-22T11:18:30.480Z,5.20
2018-08-22T11:21:10.088Z,5.10
2018-08-22T11:23:49.836Z,6.07
2018-08-22T11:26:29.476Z,5.37
2018-08-22T11:29:09.126Z,5.30
2018-08-22T11:31:48.872Z,5.47
2018-08-22T11:34:28.768Z,5.87
2018-08-22T11:37:10.789Z,5.37
2018-08-22T11:39:39.331Z,5.97
2018-08-22T11:42:07.858Z,5.73
2018-08-22T11:44:36.594Z,6.03
2018-08-22T11:47:05.178Z,5.97
2018-08-22T11:49:33.629Z,5.13
2018-08-22T11:52:02.272Z,5.20
2018-08-22T11:54:31.654Z,5.30
2018-08-22T11:57:00.782Z,5.37
2018-08-22T11:59:29.348Z,5.60
2018-08-22T12:01:57.812Z,5.40
2018-08-22T12:04:26.244Z,5.43
2018-08-22T12:06:54.792Z,5.53
2018-08-22T12:09:23.354Z,5.07
2018-08-22T12:11:51.793Z,5.70
2018-08-22T12:14:20.266Z,5.20
2018-08-22T12:16:48.707Z,5.30
2018-08-22T12:19:17.226Z,5.80
2018-08-22T12:21:45.665Z,5.30
2018-08-22T12:24:14.148Z,5.50
2018-08-22T12:26:42.599Z,5.97
2018-08-22T12:29:11.030Z,5.77
2018-08-22T12:31:39.635Z,5.73
2018-08-22T12:34:08.108Z,5.53
2018-08-22T12:36:36.557Z,5.67
2018-08-22T12:39:07.289Z,6.70
2018-08-22T12:41:35.704Z,5.50
2018-08-22T12:44:04.139Z,5.87
2018-08-22T12:46:32.766Z,5.73
2018-08-22T12:49:01.260Z,5.77
2018-08-22T12:51:29.764Z,5.77
2018-08-22T12:53:58.415Z,6.03
2018-08-22T12:56:27.190Z,5.70
2018-08-22T12:58:55.648Z,6.40
2018-08-22T13:01:24.055Z,6.47
2018-08-22T13:03:52.580Z,6.23
2018-08-22T13:06:21.047Z,6.50
2018-08-22T13:08:49.511Z,5.97
2018-08-22T13:11:18.117Z,5.93
2018-08-22T13:13:46.530Z,6.10
2018-08-22T13:16:15.190Z,5.53
2018-08-22T13:18:43.622Z,6.27
2018-08-22T13:21:12.035Z,5.90
2018-08-22T13:23:40.579Z,5.90
2018-08-22T13:26:09.246Z,6.47
2018-08-22T13:28:37.689Z,6.13
2018-08-22T13:31:06.415Z,5.73
2018-08-22T13:33:35.216Z,5.47
2018-08-22T13:36:03.727Z,6.13
2018-08-22T13:38:32.206Z,5.83
2018-08-22T13:41:00.792Z,6.00
2018-08-22T13:43:29.485Z,6.00
2018-08-22T13:45:57.945Z,6.13
2018-08-22T13:48:26.391Z,6.23
2018-08-22T13:50:54.891Z,6.20
2018-08-22T13:53:23.322Z,5.80
2018-08-22T13:55:51.845Z,6.00
2018-08-22T13:58:20.251Z,6.23
2018-08-22T14:00:48.813Z,6.47
2018-08-22T14:03:17.247Z,6.07
2018-08-22T14:05:45.639Z,5.93
2018-08-22T14:08:14.647Z,5.80
2018-08-22T14:10:43.150Z,6.60
2018-08-22T14:13:11.952Z,5.53
2018-08-22T14:15:40.371Z,6.20
2018-08-22T14:18:08.830Z,6.80
2018-08-22T14:20:37.736Z,5.83
2018-08-22T14:23:06.802Z,6.00
2018-08-22T14:25:35.258Z,5.93
2018-08-22T14:28:03.876Z,5.93
2018-08-22T14:30:32.375Z,5.83
2018-08-22T14:33:00.831Z,5.30
2018-08-22T14:35:29.401Z,6.30
2018-08-22T14:37:57.897Z,5.93
2018-08-22T14:40:26.498Z,5.70
2018-08-22T14:42:54.991Z,5.93
2018-08-22T14:45:23.553Z,5.30
2018-08-22T14:47:52.046Z,5.77
2018-08-22T14:50:20.652Z,5.80
2018-08-22T14:52:49.164Z,5.50
2018-08-22T14:55:17.712Z,5.60
2018-08-22T14:57:46.515Z,5.93
2018-08-22T15:00:15.018Z,5.37
2018-08-22T15:02:43.652Z,5.30
2018-08-22T15:05:12.361Z,5.37
2018-08-22T15:07:40.920Z,5.30
2018-08-22T15:10:09.808Z,5.70
2018-08-22T15:12:38.289Z,5.80
2018-08-22T15:15:06.725Z,5.40
2018-08-22T15:17:35.250Z,6.27
2018-08-22T15:20:03.950Z,5.73
2018-08-22T15:22:32.588Z,5.40
2018-08-22T15:25:01.130Z,5.37
2018-08-22T15:27:29.648Z,6.03
2018-08-22T15:29:58.169Z,4.93
2018-08-22T15:32:26.892Z,6.03
2018-08-22T15:34:56.948Z,5.97
2018-08-22T15:37:26.131Z,5.80
2018-08-22T15:39:54.638Z,6.13
2018-08-22T15:42:23.447Z,5.90
2018-08-22T15:44:51.915Z,5.80
2018-08-22T15:47:20.483Z,6.03
2018-08-22T15:49:48.864Z,7.40
2018-08-22T15:52:17.305Z,6.17
2018-08-22T15:55:01.757Z,7.00
2018-08-22T15:57:44.631Z,7.07
2018-08-22T16:00:13.610Z,7.23
2018-08-22T16:02:42.098Z,6.90
2018-08-22T16:05:10.639Z,7.67
2018-08-22T16:07:39.089Z,6.67
2018-08-22T16:10:07.739Z,6.60
2018-08-22T16:12:36.184Z,7.40
2018-08-22T16:15:04.741Z,7.17
2018-08-22T16:17:33.580Z,8.30
2018-08-22T16:20:02.335Z,8.40
2018-08-22T16:22:30.859Z,7.50
2018-08-22T16:24:59.308Z,8.33
2018-08-22T16:27:27.820Z,7.57
2018-08-22T16:29:56.257Z,8.27
2018-08-22T16:32:25.141Z,7.57
2018-08-22T16:34:53.610Z,7.80
2018-08-22T16:37:22.063Z,8.70
2018-08-22T16:39:50.560Z,9.20
2018-08-22T16:42:23.731Z,8.93
2018-08-22T16:44:52.285Z,9.10
2018-08-22T16:47:25.061Z,8.53
2018-08-22T16:49:53.585Z,10.33
2018-08-22T16:52:22.052Z,9.27
2018-08-22T16:55:00.547Z,10.10
2018-08-22T16:57:29.022Z,9.90
2018-08-22T16:59:57.561Z,9.60
2018-08-22T17:02:26.066Z,10.00
2018-08-22T17:04:54.664Z,9.53
2018-08-22T17:07:23.174Z,9.97
2018-08-22T17:09:51.585Z,9.73
2018-08-22T17:12:20.043Z,10.20
2018-08-22T17:14:48.489Z,9.70
2018-08-22T17:17:17.178Z,10.47
2018-08-22T17:19:45.659Z,10.33
2018-08-22T17:22:14.145Z,10.70
2018-08-22T17:24:42.638Z,11.23
2018-08-22T17:27:11.096Z,10.90
2018-08-22T17:29:39.590Z,11.30
2018-08-22T17:32:08.066Z,12.03
2018-08-22T17:34:36.956Z,11.67
2018-08-22T17:37:07.972Z,11.60
2018-08-22T17:39:36.426Z,10.53
2018-08-22T17:42:04.954Z,11.00
2018-08-22T17:44:33.386Z,11.00
2018-08-22T17:47:01.852Z,11.57
2018-08-22T17:49:30.449Z,11.57
2018-08-22T17:52:05.083Z,11.40
2018-08-22T17:54:33.663Z,11.80
2018-08-22T17:57:14.492Z,11.03
2018-08-22T17:59:43.908Z,10.20
2018-08-22T18:02:12.788Z,10.90
2018-08-22T18:04:57.644Z,10.77
2018-08-22T18:07:26.213Z,10.70
2018-08-22T18:09:54.782Z,10.27
2018-08-22T18:12:25.113Z,10.03
2018-08-22T18:14:55.869Z,10.13
2018-08-22T18:17:24.388Z,10.23
2018-08-22T18:19:52.967Z,9.33
2018-08-22T18:22:21.959Z,9.93
2018-08-22T18:24:55.801Z,9.97
2018-08-22T18:27:24.646Z,8.93
2018-08-22T18:29:53.106Z,9.50
2018-08-22T18:32:21.635Z,9.23
2018-08-22T18:35:00.616Z,9.77
2018-08-22T18:37:30.084Z,9.60
2018-08-22T18:40:22.512Z,9.60
2018-08-22T18:42:53.374Z,8.20
2018-08-22T18:45:22.594Z,8.33
2018-08-22T18:47:51.130Z,8.83
2018-08-22T18:50:19.832Z,9.27
2018-08-22T18:52:51.658Z,8.63
2018-08-22T18:55:22.511Z,9.10
2018-08-22T18:57:51.536Z,9.50
2018-08-22T19:00:20.099Z,9.13
2018-08-22T19:02:51.043Z,8.67
2018-08-22T19:05:26.774Z,8.43
2018-08-22T19:08:15.517Z,8.67
2018-08-22T19:10:46.336Z,8.80
2018-08-22T19:13:24.795Z,9.10
2018-08-22T19:15:58.470Z,9.37
2018-08-22T19:18:26.988Z,8.67
2018-08-22T19:20:57.032Z,9.27
2018-08-22T19:23:26.214Z,8.97
2018-08-22T19:25:55.653Z,9.23
2018-08-22T19:28:24.425Z,8.70
2018-08-22T19:30:52.915Z,9.30
2018-08-22T19:33:22.897Z,9.20
2018-08-22T19:35:51.484Z,8.57
2018-08-22T19:38:22.410Z,9.33
2018-08-22T19:40:51.134Z,9.53
2018-08-22T19:43:19.698Z,9.00
2018-08-22T19:45:48.152Z,8.50
2018-08-22T19:48:16.691Z,8.73
2018-08-22T19:50:45.156Z,9.20
2018-08-22T19:53:13.631Z,9.83
2018-08-22T19:55:42.073Z,8.67
2018-08-22T19:58:10.599Z,8.70
2018-08-22T20:00:39.021Z,8.60
2018-08-22T20:03:07.564Z,8.67
2018-08-22T20:05:56.598Z,8.97
2018-08-22T20:08:30.382Z,8.93
2018-08-22T20:10:59.175Z,9.03
2018-08-22T20:13:38.496Z,8.23
2018-08-22T20:16:07.051Z,8.47
2018-08-22T20:18:35.522Z,8.53
2018-08-22T20:21:03.971Z,8.80
2018-08-22T20:23:32.461Z,8.63
2018-08-22T20:26:01.236Z,9.13
2018-08-22T20:28:29.828Z,8.10
2018-08-22T20:31:02.892Z,8.27
2018-08-22T20:33:31.400Z,8.00
2018-08-22T20:35:59.997Z,8.37
2018-08-22T20:38:28.444Z,7.70
2018-08-22T20:41:01.193Z,8.60
2018-08-22T20:43:29.616Z,8.30
2018-08-22T20:45:58.796Z,8.87
2018-08-22T20:48:27.227Z,8.60
2018-08-22T20:50:55.706Z,8.80
2018-08-22T20:53:24.144Z,8.47
2018-08-22T20:55:52.583Z,8.23
2018-08-22T20:58:30.127Z,8.87
2018-08-22T21:00:59.543Z,8.90
2018-08-22T21:03:28.010Z,8.30
2018-08-22T21:05:56.494Z,8.93
2018-08-22T21:08:25.246Z,9.07
2018-08-22T21:10:53.848Z,8.67
2018-08-22T21:13:27.349Z,9.03
2018-08-22T21:15:56.118Z,8.93
2018-08-22T21:18:24.739Z,8.73
2018-08-22T21:20:53.353Z,8.57
2018-08-22T21:23:21.880Z,8.93
2018-08-22T21:25:50.629Z,12.13
2018-08-22T21:28:25.119Z,10.07
2018-08-22T21:31:00.536Z,10.47
2018-08-22T21:33:30.148Z,9.93
2018-08-22T21:35:58.753Z,9.87
2018-08-22T21:38:27.327Z,8.93
2018-08-22T21:40:55.794Z,9.93
2018-08-22T21:43:24.226Z,10.50
2018-08-22T21:45:52.778Z,10.30
2018-08-22T21:48:23.940Z,10.13
2018-08-22T21:50:52.755Z,10.83
2018-08-22T21:53:21.244Z,10.67
2018-08-22T21:55:52.300Z,10.90
2018-08-22T21:58:21.025Z,10.37
2018-08-22T22:00:49.548Z,9.80
2018-08-22T22:03:23.386Z,10.10
2018-08-22T22:05:56.178Z,10.73
2018-08-22T22:08:24.716Z,9.63
2018-08-22T22:11:01.539Z,10.53
2018-08-22T22:13:30.172Z,9.80
2018-08-22T22:15:59.436Z,10.80
2018-08-22T22:18:27.967Z,10.03
2018-08-22T22:21:15.336Z,9.43
2018-08-22T22:23:45.346Z,9.87
2018-08-22T22:26:14.820Z,10.43
2018-08-22T22:28:43.419Z,10.37
2018-08-22T22:31:13.711Z,10.70
2018-08-22T22:33:46.938Z,11.50
2018-08-22T22:36:15.965Z,10.37
2018-08-22T22:38:44.557Z,10.77
2018-08-22T22:41:13.312Z,11.77
2018-08-22T22:43:41.927Z,11.10
2018-08-22T22:46:10.526Z,10.40
2018-08-22T22:48:40.847Z,11.83
2018-08-22T22:51:09.985Z,12.17
2018-08-22T22:53:38.695Z,11.97
2018-08-22T22:56:07.464Z,12.37
2018-08-22T22:58:36.789Z,13.47
2018-08-22T23:01:06.085Z,12.57
2018-08-22T23:03:34.559Z,12.97
2018-08-22T23:06:03.011Z,13.50
2018-08-22T23:08:31.452Z,12.60
2018-08-22T23:11:00.083Z,13.30
2018-08-22T23:13:29.457Z,14.23
2018-08-22T23:15:57.906Z,13.10
2018-08-22T23:18:27.734Z,15.37
2018-08-22T23:20:56.144Z,14.80
2018-08-22T23:23:38.954Z,15.07
2018-08-22T23:26:13.818Z,17.00
2018-08-22T23:28:43.691Z,17.27
2018-08-22T23:31:15.125Z,16.97
2018-08-22T23:33:43.603Z,17.67
2018-08-22T23:36:12.139Z,17.63
2018-08-22T23:38:40.832Z,18.27
2018-08-22T23:41:09.339Z,18.03
2018-08-22T23:43:43.070Z,17.57
2018-08-22T23:46:12.367Z,17.97
2018-08-22T23:48:41.442Z,18.93
2018-08-22T23:51:11.215Z,18.20
2018-08-22T23:53:43.789Z,18.90
2018-08-22T23:56:18.319Z,18.33
2018-08-22T23:58:47.680Z,18.63
